Terminal Aerodrome Forecast
Issued by NWS

Home | Current Version | Previous Version | Graphics & Text | Print | Product List | Glossary On
Versions: 1 2 3 4 5 6 7 8 9 10 11 12 13 14 15 16 17 18 19
000
FTUS43 KMPX 090520
TAFAXN
TAF
KAXN 090520Z 0906/1006 34017G26KT P6SM BKN020
     FM091300 33012G20KT P6SM BKN035 OVC060
     FM091700 31010KT P6SM SCT060
     FM092000 28009KT P6SM SCT150
     FM092300 24008KT P6SM BKN200=

USA.gov is the U.S. government's official web portal to all federal, state and local government web resources and services.